Tropical Cyclones
[Index]
Main Index Home Page Stock Weather Photos Extreme Storms Discussion Storm News and Storm Chasing Reports Tropical Cyclones / Hurricanes / Typhoons Weather Data and Links Wild Fires / Bushfires Weather Observation Techniques Weather Picture Catalogue Tornado Pictures and Reports Stock Video Footage and DVDs for sale
Season 1966-1967 Tropical Cyclone DULCIE Track Map
Season 1966-1967 Summaries: [BoM-AU] [JTWC-AU] [JTWC-SIO] [JTWC-SPAC] [JTWC-SH]
<<- Previous TC | BoM 1966-1967 Season | Next TC ->>

click for intensity scale information  Lat/long Grid: Show Hide

 Date Labels: Show Hide

Bureau of Meteorology Tropical Cyclone Data

Name: DULCIE
Number: 420 / 196667_12

13 Mar 1967 02:00 UTC to 17 Mar 1967 08:00 UTC

    date/time    lat    long    hPa   cat  kts
1967-03-13 02   15.0   156.5   1000                     
1967-03-13 05   15.3   155.7    998                     
1967-03-13 08   15.8   155.2    998                     
1967-03-13 11   16.3   154.8    998                     
1967-03-13 14   16.9   154.5    998                     
1967-03-13 17   17.6   154.3    998                     
1967-03-13 20   18.0   154.2    998                     
1967-03-13 23   18.3   154.2    998                     
1967-03-14 02   18.6   154.4    998                     
1967-03-14 05   18.8   154.6    996                     
1967-03-14 08   19.2   154.7    996                     
1967-03-14 11   19.4   155.0    996                     
1967-03-14 14   19.6   155.2    996                     
1967-03-14 17   19.8   155.3    996                     
1967-03-14 20   20.0   155.6    996                     
1967-03-14 23   20.2   155.8    996                     
1967-03-15 02   20.4   156.1    996                     
1967-03-15 05   20.7   156.3    996                     
1967-03-15 08   20.8   156.5    996                     
1967-03-15 11   21.1   156.8    996                     
1967-03-15 14   21.3   156.9    996                     
1967-03-15 17   21.5   157.1    996                     
1967-03-15 20   21.8   157.3    996                     
1967-03-15 23   22.0   157.5    998                     
1967-03-16 02   22.3   157.7    998                     
1967-03-16 05   22.7   158.2    998                     
1967-03-16 08   23.2   158.2    998                     
1967-03-16 11   23.7   159.3    998                     
1967-03-16 14   24.2   159.7    998                     
1967-03-16 17   24.8   160.3   1000                     
1967-03-16 20   25.4   160.8   1000                     
1967-03-16 23   26.0   161.5   1000                     
1967-03-17 02   26.7   162.0   1000                     
1967-03-17 05   27.3   162.3   1000                     
1967-03-17 08   28.0   163.0   1000                     
Winds are 10-min average.

Tropical cyclone tracks developed by Michael Bath using data from the Bureau of Meteorology and Google Maps.


[Australian Severe Weather index] [Copyright Notice] [Email Contacts] [Search This Site] [Privacy Policy]
Document: tropical_cyclone_dulcie.htm Updated: 30 May 2013